Time;durP1;ratioP1;P1;durP2;ratioP2;P2;SDS_P1;SDS_P2;PMS_P1;PMS_P2;Temp;Humidity;BMP_temperature;BMP_pressure;BME280_temperature;BME280_humidity;BME280_pressure;Samples;Min_cycle;Max_cycle;Signal;HPM_P1;HPM_P2
2024/01/29 00:04:03;;;;;;;20.25;12.75;;;22.60;43.00;;;;;;10465494;28;20138;-45
2024/01/29 00:09:05;;;;;;;18.60;12.18;;;22.50;42.80;;;;;;10464131;28;20097;-44
2024/01/29 00:14:08;;;;;;;18.48;11.80;;;22.60;42.70;;;;;;10450136;28;20405;-47
2024/01/29 00:19:09;;;;;;;16.50;11.77;;;22.70;42.60;;;;;;10456629;28;20408;-45
2024/01/29 00:24:11;;;;;;;17.55;12.13;;;22.50;42.70;;;;;;10463159;28;20132;-44
2024/01/29 00:29:14;;;;;;;16.20;11.43;;;22.50;42.60;;;;;;10462227;28;20099;-44
2024/01/29 00:34:16;;;;;;;13.80;10.40;;;22.50;42.80;;;;;;10458252;28;20045;-45
2024/01/29 00:39:18;;;;;;;14.07;10.23;;;22.60;42.50;;;;;;10460595;28;21178;-44
2024/01/29 00:44:21;;;;;;;15.63;10.98;;;22.60;42.40;;;;;;10463699;28;20477;-46
2024/01/29 00:49:22;;;;;;;16.02;10.68;;;22.70;42.30;;;;;;10468360;28;20067;-47
2024/01/29 00:54:24;;;;;;;15.00;10.27;;;22.60;42.20;;;;;;10449913;28;20049;-47
2024/01/29 00:59:29;;;;;;;13.57;9.90;;;22.50;42.30;;;;;;10462722;28;20124;-47
2024/01/29 01:04:31;;;;;;;15.60;9.15;;;22.60;42.30;;;;;;10458035;28;20078;-46
2024/01/29 01:09:34;;;;;;;15.70;9.65;;;22.40;42.30;;;;;;10455506;28;20106;-48
2024/01/29 01:14:37;;;;;;;12.20;8.80;;;22.50;42.30;;;;;;10457173;28;20052;-45
2024/01/29 01:19:38;;;;;;;13.10;9.30;;;22.50;42.20;;;;;;10462211;28;20041;-46
2024/01/29 01:24:40;;;;;;;13.85;8.80;;;22.50;42.20;;;;;;10464341;28;20040;-44
2024/01/29 01:29:44;;;;;;;11.20;8.25;;;22.40;42.30;;;;;;10442336;28;20152;-44
2024/01/29 01:34:47;;;;;;;12.25;8.05;;;22.40;42.40;;;;;;10459825;28;20037;-43
2024/01/29 01:39:52;;;;;;;12.57;8.05;;;22.30;42.40;;;;;;10464858;28;20052;-44
2024/01/29 01:44:55;;;;;;;10.35;7.65;;;22.30;42.40;;;;;;10456065;28;20128;-47
2024/01/29 01:49:56;;;;;;;9.13;6.88;;;22.40;42.40;;;;;;10456511;28;20116;-44
2024/01/29 01:54:58;;;;;;;9.70;7.57;;;22.30;42.40;;;;;;10458620;28;20136;-47
2024/01/29 02:00:02;;;;;;;9.30;7.15;;;22.30;42.40;;;;;;10465891;28;20048;-44
2024/01/29 02:05:04;;;;;;;10.30;7.57;;;22.40;42.30;;;;;;10451846;28;20037;-43
2024/01/29 02:10:06;;;;;;;8.60;6.65;;;22.30;42.40;;;;;;10446310;28;20049;-47
2024/01/29 02:15:10;;;;;;;10.85;6.88;;;22.30;42.30;;;;;;10457699;28;20094;-49
2024/01/29 02:20:12;;;;;;;10.32;6.72;;;22.20;42.50;;;;;;10456455;28;20056;-48
2024/01/29 02:25:15;;;;;;;9.77;6.80;;;22.30;42.40;;;;;;10453002;28;20033;-47
2024/01/29 02:30:16;;;;;;;8.32;6.13;;;22.20;42.50;;;;;;10458870;28;20045;-47
2024/01/29 02:35:18;;;;;;;8.05;6.25;;;22.20;42.60;;;;;;10469189;28;20036;-50
2024/01/29 02:40:21;;;;;;;8.38;5.80;;;22.20;42.50;;;;;;10454037;28;20045;-48
2024/01/29 02:45:22;;;;;;;8.57;5.53;;;22.30;42.50;;;;;;10448810;28;20132;-47
2024/01/29 02:50:25;;;;;;;7.30;5.80;;;22.20;43.10;;;;;;10463876;28;20041;-46
2024/01/29 02:55:28;;;;;;;7.97;5.50;;;22.10;42.50;;;;;;10466802;28;20041;-48
2024/01/29 03:00:31;;;;;;;7.47;5.50;;;22.10;42.40;;;;;;10462634;28;20128;-46
2024/01/29 03:05:32;;;;;;;6.05;4.85;;;22.10;42.50;;;;;;10466631;28;20042;-47
2024/01/29 03:10:35;;;;;;;6.15;4.95;;;22.10;42.50;;;;;;10469099;28;20482;-46
2024/01/29 03:15:37;;;;;;;7.93;4.70;;;22.10;42.50;;;;;;10466021;28;20490;-48
2024/01/29 03:20:38;;;;;;;7.55;5.15;;;22.10;42.40;;;;;;10455447;28;20049;-46
2024/01/29 03:25:41;;;;;;;6.28;5.25;;;22.10;42.30;;;;;;10458461;28;20049;-47
2024/01/29 03:30:43;;;;;;;6.30;4.45;;;22.10;42.30;;;;;;10470233;28;20124;-46
2024/01/29 03:35:45;;;;;;;5.72;4.47;;;22.00;42.50;;;;;;10462177;28;20512;-48
2024/01/29 03:40:48;;;;;;;6.05;4.53;;;22.20;42.20;;;;;;10460113;28;20136;-46
2024/01/29 03:45:51;;;;;;;5.82;4.55;;;22.10;42.30;;;;;;10462485;28;20076;-46
2024/01/29 03:50:52;;;;;;;6.45;4.65;;;22.00;42.30;;;;;;10465234;28;20067;-46
2024/01/29 03:55:56;;;;;;;5.68;4.10;;;22.00;42.40;;;;;;10458973;28;20059;-46
2024/01/29 04:00:58;;;;;;;6.70;4.43;;;22.00;42.30;;;;;;10455899;28;20568;-47
2024/01/29 04:05:59;;;;;;;5.68;4.25;;;22.00;42.40;;;;;;10453550;28;20091;-46
2024/01/29 04:11:02;;;;;;;5.18;4.20;;;22.50;41.80;;;;;;10465263;28;20045;-46
2024/01/29 04:16:04;;;;;;;4.50;3.70;;;22.80;41.40;;;;;;10455704;28;20040;-46
2024/01/29 04:21:06;;;;;;;4.93;3.88;;;23.00;40.90;;;;;;10457739;28;20056;-46
2024/01/29 04:26:10;;;;;;;4.85;3.78;;;23.20;40.70;;;;;;10459318;28;20585;-46
2024/01/29 04:31:11;;;;;;;3.83;3.25;;;23.20;40.60;;;;;;10461857;28;20064;-48
2024/01/29 04:36:14;;;;;;;4.10;3.63;;;23.40;40.10;;;;;;10452504;28;20045;-46
2024/01/29 04:41:20;;;;;;;4.03;3.53;;;23.50;39.90;;;;;;10450111;28;20045;-46
2024/01/29 04:46:23;;;;;;;3.90;3.17;;;23.50;39.90;;;;;;10462124;28;20051;-47
2024/01/29 04:51:26;;;;;;;3.58;2.97;;;23.60;39.60;;;;;;10458630;28;20231;-50
2024/01/29 04:56:29;;;;;;;3.45;3.10;;;23.60;39.40;;;;;;10453866;28;20045;-46
2024/01/29 05:01:30;;;;;;;3.83;2.78;;;23.70;39.30;;;;;;10458721;28;20049;-46
2024/01/29 05:06:32;;;;;;;2.92;2.63;;;23.80;39.00;;;;;;10466566;28;20044;-46
2024/01/29 05:11:37;;;;;;;4.07;3.30;;;23.70;39.20;;;;;;10457851;28;20045;-49
2024/01/29 05:16:38;;;;;;;3.70;2.70;;;23.50;39.60;;;;;;10442224;28;20087;-47
2024/01/29 05:21:40;;;;;;;2.72;2.40;;;23.30;40.00;;;;;;10450732;28;20449;-50
2024/01/29 05:26:43;;;;;;;4.05;2.85;;;23.20;39.90;;;;;;10454975;28;20064;-47
2024/01/29 05:31:44;;;;;;;2.95;2.50;;;23.30;40.20;;;;;;10456020;28;20052;-46
2024/01/29 05:36:46;;;;;;;3.50;2.60;;;23.60;40.00;;;;;;10454542;28;20056;-46
2024/01/29 05:41:49;;;;;;;3.90;2.42;;;23.80;39.90;;;;;;10456565;28;20049;-46
2024/01/29 05:46:50;;;;;;;4.00;2.65;;;23.60;40.10;;;;;;10455086;28;20041;-46
2024/01/29 05:51:52;;;;;;;5.38;2.60;;;23.60;40.00;;;;;;10453281;28;20077;-46
2024/01/29 05:56:56;;;;;;;32.92;9.05;;;23.60;41.00;;;;;;10445807;28;20102;-44
2024/01/29 06:01:58;;;;;;;99.82;22.83;;;23.60;42.60;;;;;;10453071;28;20542;-45
2024/01/29 06:07:00;;;;;;;122.15;26.98;;;23.80;42.90;;;;;;10458479;28;20152;-43
2024/01/29 06:12:03;;;;;;;111.95;25.58;;;24.00;42.10;;;;;;10452320;28;20135;-44
2024/01/29 06:17:05;;;;;;;80.75;21.17;;;23.90;42.30;;;;;;10457540;28;20119;-49
2024/01/29 06:22:06;;;;;;;64.43;19.10;;;23.70;42.90;;;;;;10468995;28;20048;-43
2024/01/29 06:27:09;;;;;;;67.13;19.55;;;23.60;43.10;;;;;;10459535;28;20123;-44
2024/01/29 06:32:11;;;;;;;58.53;18.90;;;23.60;43.30;;;;;;10458167;28;20132;-44
2024/01/29 06:37:12;;;;;;;57.85;18.20;;;23.50;43.80;;;;;;10458386;28;20047;-44
2024/01/29 06:42:15;;;;;;;60.72;15.95;;;23.60;43.80;;;;;;10467481;28;20132;-44
2024/01/29 06:47:17;;;;;;;50.78;15.35;;;23.50;43.90;;;;;;10463336;28;20079;-44
2024/01/29 06:52:19;;;;;;;54.92;14.93;;;23.30;43.90;;;;;;10459958;28;20086;-44
2024/01/29 06:57:22;;;;;;;43.38;13.30;;;23.40;43.80;;;;;;10465709;28;20047;-46
2024/01/29 07:02:23;;;;;;;41.63;13.25;;;23.30;44.20;;;;;;10457800;28;20413;-44
2024/01/29 07:07:25;;;;;;;33.92;11.23;;;23.40;44.20;;;;;;10455299;28;20102;-45
2024/01/29 07:12:28;;;;;;;31.98;10.82;;;23.30;43.30;;;;;;10454639;28;20055;-45
2024/01/29 07:17:29;;;;;;;31.85;10.90;;;23.20;43.70;;;;;;10463392;28;20131;-43
2024/01/29 07:22:37;;;;;;;29.98;10.68;;;23.10;43.70;;;;;;10458110;28;20049;-44
2024/01/29 07:27:39;;;;;;;23.63;9.15;;;22.90;44.00;;;;;;10459035;28;20037;-44
2024/01/29 07:32:41;;;;;;;25.00;8.82;;;22.90;44.00;;;;;;10461510;28;20056;-51
2024/01/29 07:37:43;;;;;;;26.20;8.63;;;22.80;44.00;;;;;;10459565;28;20132;-48
2024/01/29 07:42:46;;;;;;;25.55;9.18;;;22.90;43.90;;;;;;10463800;28;20068;-45
2024/01/29 07:47:47;;;;;;;21.55;8.32;;;23.10;43.40;;;;;;10455636;28;20403;-43
2024/01/29 07:52:49;;;;;;;20.00;8.25;;;23.10;43.10;;;;;;10462400;28;20090;-44
2024/01/29 07:57:52;;;;;;;16.77;7.18;;;23.20;42.80;;;;;;10459773;28;20073;-47
2024/01/29 08:02:54;;;;;;;18.55;7.50;;;23.10;43.00;;;;;;10457131;28;20072;-44
2024/01/29 08:07:56;;;;;;;20.40;7.28;;;23.10;42.60;;;;;;10458912;28;20037;-46
2024/01/29 08:12:59;;;;;;;14.88;6.82;;;23.20;42.60;;;;;;10466771;28;20071;-48
2024/01/29 08:18:00;;;;;;;15.20;6.18;;;23.60;42.50;;;;;;10452927;28;20128;-44
2024/01/29 08:23:02;;;;;;;14.02;6.00;;;23.90;42.20;;;;;;10459233;28;20555;-52
2024/01/29 08:28:06;;;;;;;13.48;6.00;;;24.00;42.30;;;;;;10443920;28;20115;-44
2024/01/29 08:33:07;;;;;;;16.73;6.25;;;24.00;42.30;;;;;;10457213;28;20051;-44
2024/01/29 08:38:09;;;;;;;14.23;5.80;;;24.10;42.40;;;;;;10447232;28;20068;-47
2024/01/29 08:43:12;;;;;;;14.07;5.10;;;24.00;42.60;;;;;;10460706;28;20123;-47
2024/01/29 08:48:14;;;;;;;10.32;4.85;;;24.10;42.70;;;;;;10465765;28;20131;-43
2024/01/29 08:53:15;;;;;;;14.10;5.22;;;24.10;42.60;;;;;;10447506;28;20055;-47
2024/01/29 08:58:19;;;;;;;16.23;5.05;;;24.30;42.60;;;;;;10456396;28;20057;-50
2024/01/29 09:03:21;;;;;;;12.13;4.60;;;24.30;42.70;;;;;;10459221;28;20143;-44
2024/01/29 09:08:22;;;;;;;16.15;5.35;;;24.30;42.90;;;;;;10453318;28;20135;-44
2024/01/29 09:13:25;;;;;;;8.40;4.15;;;24.30;43.60;;;;;;10453161;28;20053;-46
2024/01/29 09:18:27;;;;;;;14.27;4.50;;;24.30;43.20;;;;;;10460207;28;20127;-44
2024/01/29 09:23:29;;;;;;;13.18;4.70;;;24.40;43.20;;;;;;10458624;28;20541;-49
2024/01/29 09:28:32;;;;;;;10.93;4.25;;;24.50;43.00;;;;;;10465981;28;20041;-47
2024/01/29 09:33:34;;;;;;;8.45;3.90;;;24.70;42.80;;;;;;10451747;28;20417;-46
2024/01/29 09:38:35;;;;;;;14.02;4.18;;;24.80;43.10;;;;;;10459323;28;20036;-45
2024/01/29 09:43:38;;;;;;;14.02;4.07;;;24.60;43.50;;;;;;10449333;28;20131;-44
2024/01/29 09:48:40;;;;;;;10.75;3.60;;;24.60;43.60;;;;;;10453430;28;20045;-45
2024/01/29 09:53:42;;;;;;;9.40;3.80;;;24.90;43.10;;;;;;10450361;28;20396;-47
2024/01/29 09:58:45;;;;;;;17.98;4.10;;;24.90;43.10;;;;;;10467918;28;20076;-51
2024/01/29 10:03:46;;;;;;;12.20;3.60;;;24.70;43.40;;;;;;10459832;28;20092;-49
2024/01/29 10:08:48;;;;;;;7.03;3.03;;;24.70;43.80;;;;;;10451848;28;20044;-49
2024/01/29 10:13:58;;;;;;;9.40;3.80;;;24.80;43.50;;;;;;10458719;28;20519;-45
2024/01/29 10:19:00;;;;;;;8.23;3.58;;;24.80;43.60;;;;;;10453478;28;20143;-52
2024/01/29 10:24:02;;;;;;;7.60;3.30;;;25.10;43.20;;;;;;10450131;28;20128;-48
2024/01/29 10:29:06;;;;;;;8.73;3.22;;;25.10;43.30;;;;;;10456915;28;20045;-47
2024/01/29 10:34:08;;;;;;;9.85;3.05;;;25.30;43.00;;;;;;10470677;28;20185;-50
2024/01/29 10:39:09;;;;;;;13.35;3.20;;;25.20;43.00;;;;;;10456932;28;20476;-45
2024/01/29 10:44:12;;;;;;;9.63;2.88;;;25.40;42.70;;;;;;10453293;28;20041;-46
2024/01/29 10:49:14;;;;;;;6.72;3.17;;;25.40;42.50;;;;;;10452390;28;20053;-48
2024/01/29 10:54:16;;;;;;;6.00;3.00;;;25.40;40.30;;;;;;10447505;28;20505;-46
2024/01/29 10:59:20;;;;;;;7.38;3.08;;;25.10;41.10;;;;;;10449748;28;20128;-45
2024/01/29 11:04:21;;;;;;;7.00;3.00;;;25.00;42.30;;;;;;10457185;28;20098;-48
2024/01/29 11:09:24;;;;;;;12.88;3.00;;;25.10;42.40;;;;;;10466375;28;20045;-49
2024/01/29 11:14:27;;;;;;;8.23;2.83;;;25.00;41.20;;;;;;10475241;28;20128;-51
2024/01/29 11:19:32;;;;;;;8.10;2.90;;;25.10;41.60;;;;;;10461828;28;20053;-47
2024/01/29 11:24:34;;;;;;;8.95;3.40;;;24.70;42.90;;;;;;10455585;28;20072;-47
2024/01/29 11:29:37;;;;;;;11.25;3.17;;;24.70;43.50;;;;;;10466546;28;20414;-48
2024/01/29 11:34:40;;;;;;;6.57;2.25;;;25.10;42.90;;;;;;10458685;28;20048;-48
2024/01/29 11:39:45;;;;;;;6.45;3.00;;;25.10;43.00;;;;;;10457588;28;20068;-48
2024/01/29 11:44:49;;;;;;;3.22;2.15;;;24.90;43.30;;;;;;10461081;28;20052;-49
2024/01/29 11:49:51;;;;;;;5.38;2.60;;;25.00;41.00;;;;;;10470788;28;20063;-47
2024/01/29 11:54:52;;;;;;;5.63;2.63;;;25.00;39.60;;;;;;10467012;28;20059;-48
2024/01/29 11:59:55;;;;;;;5.07;2.75;;;24.90;39.40;;;;;;10452739;28;20410;-48
2024/01/29 12:04:58;;;;;;;5.88;2.25;;;24.80;39.40;;;;;;10453170;28;20067;-47
2024/01/29 12:10:00;;;;;;;3.40;2.17;;;24.90;39.20;;;;;;10465091;28;20052;-50
2024/01/29 12:15:03;;;;;;;12.40;2.33;;;24.60;39.70;;;;;;10454425;28;20044;-47
2024/01/29 12:20:06;;;;;;;4.85;2.22;;;24.50;41.20;;;;;;10459710;28;20124;-48
2024/01/29 12:25:11;;;;;;;3.95;2.20;;;24.50;42.10;;;;;;10461939;28;20120;-47
2024/01/29 12:30:15;;;;;;;6.63;2.45;;;24.60;40.50;;;;;;10470377;28;20044;-48
2024/01/29 12:35:26;;;;;;;3.55;2.08;;;24.70;39.70;;;;;;10453529;28;20051;-45
2024/01/29 12:40:27;;;;;;;5.03;2.92;;;24.70;39.40;;;;;;10454076;28;20079;-46
2024/01/29 12:45:30;;;;;;;5.97;2.08;;;24.70;39.30;;;;;;10458893;28;20041;-45
2024/01/29 12:50:32;;;;;;;3.65;2.15;;;24.70;38.40;;;;;;10462535;28;20045;-45
2024/01/29 12:55:33;;;;;;;3.50;1.90;;;25.00;37.60;;;;;;10455268;28;20569;-53
2024/01/29 13:00:37;;;;;;;4.88;2.10;;;24.90;38.00;;;;;;10456537;28;20088;-51
2024/01/29 13:05:39;;;;;;;4.90;1.75;;;25.10;38.20;;;;;;10458589;28;20048;-50
2024/01/29 13:10:41;;;;;;;4.55;1.88;;;24.70;39.20;;;;;;10461396;28;20083;-44
2024/01/29 13:15:44;;;;;;;5.20;2.10;;;24.50;39.60;;;;;;10453132;28;20041;-46
2024/01/29 13:20:45;;;;;;;3.53;1.98;;;24.50;39.90;;;;;;10448078;28;20136;-45
2024/01/29 13:25:48;;;;;;;3.22;1.85;;;24.50;40.00;;;;;;10457578;28;20055;-48
2024/01/29 13:30:51;;;;;;;4.25;1.95;;;24.50;40.30;;;;;;10448709;28;20044;-47
2024/01/29 13:35:52;;;;;;;2.28;1.55;;;24.50;40.30;;;;;;10451170;28;20466;-45
2024/01/29 13:40:54;;;;;;;4.10;1.40;;;24.50;40.30;;;;;;10459446;28;20140;-50
2024/01/29 13:45:57;;;;;;;3.22;1.70;;;24.50;40.40;;;;;;10461229;28;20060;-49
2024/01/29 13:50:59;;;;;;;2.70;1.77;;;24.50;40.40;;;;;;10462705;28;20114;-49
2024/01/29 13:56:00;;;;;;;2.28;1.30;;;24.50;40.50;;;;;;10452960;28;20128;-49
2024/01/29 14:01:04;;;;;;;2.85;1.50;;;24.60;40.40;;;;;;10454798;28;20129;-48
2024/01/29 14:06:05;;;;;;;2.40;1.50;;;24.70;40.50;;;;;;10452508;28;20144;-49
2024/01/29 14:11:07;;;;;;;3.70;1.30;;;24.70;40.40;;;;;;10451352;28;20128;-48
2024/01/29 14:16:10;;;;;;;2.20;1.50;;;24.60;40.60;;;;;;10447743;28;20524;-48
2024/01/29 14:21:16;;;;;;;3.03;1.55;;;24.70;40.50;;;;;;10458475;28;20103;-48
2024/01/29 14:26:17;;;;;;;3.75;1.35;;;24.80;40.40;;;;;;10460190;28;20128;-48
2024/01/29 14:31:20;;;;;;;3.13;1.40;;;24.70;40.50;;;;;;10453009;28;20127;-48
2024/01/29 14:36:22;;;;;;;2.42;1.50;;;24.70;40.70;;;;;;10449164;28;20071;-48
2024/01/29 14:41:24;;;;;;;3.75;1.35;;;24.80;40.50;;;;;;10461788;28;20077;-45
2024/01/29 14:46:27;;;;;;;3.08;1.70;;;24.80;40.50;;;;;;10464370;28;20056;-48
2024/01/29 14:51:29;;;;;;;1.65;1.13;;;24.70;40.70;;;;;;10463273;28;20471;-46
2024/01/29 14:56:31;;;;;;;1.85;1.17;;;24.70;40.60;;;;;;10463286;28;20076;-44
2024/01/29 15:01:34;;;;;;;1.48;1.23;;;24.70;40.70;;;;;;10474329;28;20036;-46
2024/01/29 15:06:36;;;;;;;3.17;1.30;;;24.70;40.80;;;;;;10461753;28;20061;-45
2024/01/29 15:11:37;;;;;;;1.48;1.23;;;24.80;40.60;;;;;;10453015;28;20045;-48
2024/01/29 15:16:40;;;;;;;1.70;1.25;;;24.70;40.80;;;;;;10455979;28;20124;-51
2024/01/29 15:21:42;;;;;;;1.48;1.00;;;24.70;40.90;;;;;;10459288;28;20127;-46
2024/01/29 15:26:44;;;;;;;1.40;1.27;;;24.80;40.80;;;;;;10456291;28;20068;-46
2024/01/29 15:31:47;;;;;;;1.58;1.20;;;24.80;40.60;;;;;;10465199;28;20144;-49
2024/01/29 15:36:49;;;;;;;1.83;1.27;;;24.80;40.70;;;;;;10453145;28;20403;-46
2024/01/29 15:41:50;;;;;;;1.48;1.30;;;24.70;40.80;;;;;;10461232;28;20056;-46
2024/01/29 15:46:53;;;;;;;1.40;1.10;;;24.80;40.80;;;;;;10454618;28;20410;-49
2024/01/29 15:51:55;;;;;;;1.75;1.33;;;24.70;40.80;;;;;;10458554;28;20075;-48
2024/01/29 15:56:56;;;;;;;2.70;1.30;;;24.80;40.70;;;;;;10460282;28;20048;-50
2024/01/29 16:02:04;;;;;;;10.18;1.90;;;24.80;40.70;;;;;;10456795;28;20132;-45
2024/01/29 16:07:06;;;;;;;1.90;1.20;;;24.90;40.00;;;;;;10457228;28;20040;-46
2024/01/29 16:12:08;;;;;;;2.95;1.52;;;25.00;39.70;;;;;;10463301;28;20048;-47
2024/01/29 16:17:11;;;;;;;2.08;1.30;;;25.10;39.70;;;;;;10457224;28;20529;-50
2024/01/29 16:22:13;;;;;;;2.72;1.50;;;25.00;39.70;;;;;;10459100;28;20144;-47
2024/01/29 16:27:15;;;;;;;2.33;1.25;;;24.90;40.20;;;;;;10453799;28;20535;-45
2024/01/29 16:32:17;;;;;;;2.50;1.20;;;24.80;40.60;;;;;;10449898;28;20094;-49
2024/01/29 16:37:19;;;;;;;3.83;1.90;;;24.90;40.50;;;;;;10456216;28;20041;-46
2024/01/29 16:42:21;;;;;;;2.42;1.40;;;25.20;39.80;;;;;;10459537;28;20544;-48
2024/01/29 16:47:24;;;;;;;12.55;1.58;;;25.20;39.60;;;;;;10457686;28;20041;-46
2024/01/29 16:52:25;;;;;;;2.78;1.30;;;25.10;40.10;;;;;;10461126;28;20068;-49
2024/01/29 16:57:27;;;;;;;5.22;1.50;;;25.30;40.00;;;;;;10454054;28;20049;-51
2024/01/29 17:02:30;;;;;;;6.47;1.58;;;25.10;40.20;;;;;;10453525;28;20064;-46
2024/01/29 17:07:31;;;;;;;3.88;1.55;;;25.20;40.30;;;;;;10454359;28;20505;-52
2024/01/29 17:12:33;;;;;;;3.80;1.52;;;25.10;40.60;;;;;;10453937;28;20414;-47
2024/01/29 17:17:37;;;;;;;4.90;1.70;;;25.10;40.80;;;;;;10456087;28;20128;-47
2024/01/29 17:22:38;;;;;;;9.55;1.75;;;25.10;41.30;;;;;;10459195;28;20064;-49
2024/01/29 17:27:40;;;;;;;6.95;1.60;;;25.60;40.60;;;;;;10463184;28;20040;-45
2024/01/29 17:32:44;;;;;;;2.15;1.42;;;25.90;40.30;;;;;;10452921;28;20132;-47
2024/01/29 17:37:45;;;;;;;5.25;1.48;;;26.00;40.30;;;;;;10462480;28;20095;-47
2024/01/29 17:42:47;;;;;;;2.92;1.30;;;25.70;41.30;;;;;;10457681;28;20069;-49
2024/01/29 17:47:51;;;;;;;1.92;1.08;;;25.60;41.40;;;;;;10449403;28;20055;-48
2024/01/29 17:52:53;;;;;;;4.65;1.20;;;25.70;41.40;;;;;;10456073;28;20045;-48
2024/01/29 17:57:54;;;;;;;5.13;1.40;;;25.60;41.40;;;;;;10456212;28;20052;-48
2024/01/29 18:02:57;;;;;;;1.90;1.30;;;25.50;41.80;;;;;;10460166;28;20051;-49
2024/01/29 18:07:59;;;;;;;2.78;1.30;;;25.50;42.00;;;;;;10464066;28;20043;-46
2024/01/29 18:13:00;;;;;;;2.65;1.38;;;25.60;42.10;;;;;;10452403;28;20048;-48
2024/01/29 18:18:04;;;;;;;1.98;1.30;;;25.40;42.60;;;;;;10459701;28;20055;-52
2024/01/29 18:23:08;;;;;;;2.80;1.45;;;25.70;42.40;;;;;;10467589;28;20052;-46
2024/01/29 18:28:10;;;;;;;5.88;1.35;;;26.00;40.80;;;;;;10461739;28;20452;-46
2024/01/29 18:33:13;;;;;;;16.30;1.80;;;26.00;41.00;;;;;;10462717;28;20047;-51
2024/01/29 18:38:14;;;;;;;9.98;1.85;;;25.60;42.80;;;;;;10459527;28;20053;-48
2024/01/29 18:43:16;;;;;;;6.03;1.60;;;25.60;43.50;;;;;;10463958;28;20474;-46
2024/01/29 18:48:19;;;;;;;10.38;1.90;;;25.40;44.10;;;;;;10446851;28;20079;-52
2024/01/29 18:53:20;;;;;;;6.43;1.65;;;25.40;44.40;;;;;;10468077;28;20057;-48
2024/01/29 18:58:22;;;;;;;4.85;1.50;;;25.50;44.50;;;;;;10459827;28;20052;-49
2024/01/29 19:03:25;;;;;;;4.45;1.60;;;25.70;44.30;;;;;;10455778;28;20045;-52
2024/01/29 19:08:28;;;;;;;12.88;2.20;;;25.90;44.20;;;;;;10460652;28;20045;-49
2024/01/29 19:13:31;;;;;;;5.72;2.00;;;25.90;44.70;;;;;;10464657;28;20123;-49
2024/01/29 19:18:34;;;;;;;7.47;2.15;;;26.10;44.70;;;;;;10464444;28;20494;-53
2024/01/29 19:23:36;;;;;;;9.85;2.13;;;26.20;44.90;;;;;;10461242;28;20399;-50
2024/01/29 19:28:38;;;;;;;28.63;2.63;;;26.30;45.30;;;;;;10457478;28;20055;-51
2024/01/29 19:33:41;;;;;;;10.13;2.60;;;26.10;45.70;;;;;;10456905;28;20131;-50
2024/01/29 19:38:42;;;;;;;9.60;2.10;;;26.00;45.70;;;;;;10458796;28;20064;-51
2024/01/29 19:43:44;;;;;;;8.98;2.05;;;26.20;45.60;;;;;;10456048;28;20102;-49
2024/01/29 19:48:48;;;;;;;12.13;2.50;;;26.80;44.40;;;;;;10457472;28;20048;-48
2024/01/29 19:53:50;;;;;;;7.13;2.03;;;26.60;44.20;;;;;;10460862;28;20083;-48
2024/01/29 19:58:51;;;;;;;13.32;2.58;;;26.40;43.90;;;;;;10455997;28;20408;-48
2024/01/29 20:03:54;;;;;;;9.02;2.58;;;26.10;43.90;;;;;;10449350;28;20630;-48
2024/01/29 20:08:56;;;;;;;14.98;2.65;;;26.00;44.30;;;;;;10458558;28;20489;-46
2024/01/29 20:13:57;;;;;;;9.63;2.85;;;26.00;44.40;;;;;;10458051;28;20695;-46
2024/01/29 20:19:01;;;;;;;8.85;2.92;;;25.60;45.10;;;;;;10456323;28;20047;-50
2024/01/29 20:24:02;;;;;;;8.32;2.80;;;25.50;45.20;;;;;;10460571;28;20444;-46
2024/01/29 20:29:04;;;;;;;10.90;3.03;;;25.40;45.10;;;;;;10464022;28;20124;-48
2024/01/29 20:34:08;;;;;;;9.73;2.90;;;25.20;45.40;;;;;;10459533;28;20147;-46
2024/01/29 20:39:11;;;;;;;6.55;2.63;;;25.20;45.30;;;;;;10461923;28;20041;-47
2024/01/29 20:44:12;;;;;;;5.50;2.67;;;25.10;45.30;;;;;;10447474;28;20042;-48
2024/01/29 20:49:15;;;;;;;8.07;2.97;;;24.90;45.20;;;;;;10464380;28;20082;-48
2024/01/29 20:54:17;;;;;;;7.60;3.08;;;24.80;45.40;;;;;;10452138;28;20554;-48
2024/01/29 20:59:19;;;;;;;7.03;3.05;;;24.70;45.20;;;;;;10454797;28;20729;-50
2024/01/29 21:04:22;;;;;;;6.97;3.42;;;24.60;45.10;;;;;;10460175;28;20132;-50
2024/01/29 21:09:23;;;;;;;5.10;3.30;;;24.60;45.00;;;;;;10466114;28;20051;-45
2024/01/29 21:14:25;;;;;;;8.63;3.25;;;24.50;45.10;;;;;;10461571;28;20043;-46
2024/01/29 21:19:28;;;;;;;4.88;3.22;;;24.40;45.00;;;;;;10443305;28;20055;-45
2024/01/29 21:24:29;;;;;;;5.35;3.60;;;24.40;45.00;;;;;;10457299;28;20045;-47
2024/01/29 21:29:31;;;;;;;7.60;4.00;;;24.30;44.90;;;;;;10451140;28;20040;-45
2024/01/29 21:34:34;;;;;;;4.97;3.70;;;24.20;44.90;;;;;;10452745;28;20526;-45
2024/01/29 21:39:35;;;;;;;6.32;3.97;;;24.20;44.60;;;;;;10455537;28;20095;-50
2024/01/29 21:44:38;;;;;;;6.50;3.50;;;24.10;44.50;;;;;;10459456;28;20040;-46
2024/01/29 21:49:41;;;;;;;6.25;3.85;;;24.10;44.40;;;;;;10462716;28;20421;-45
2024/01/29 21:54:43;;;;;;;6.28;4.00;;;24.00;44.50;;;;;;10449233;28;20071;-46
2024/01/29 21:59:44;;;;;;;6.07;4.13;;;24.00;44.60;;;;;;10447527;28;20068;-49
2024/01/29 22:04:47;;;;;;;9.70;4.72;;;24.00;44.50;;;;;;10461763;28;20038;-46
2024/01/29 22:09:49;;;;;;;8.48;4.47;;;23.80;44.60;;;;;;10454509;28;20051;-50
2024/01/29 22:14:51;;;;;;;8.50;4.70;;;23.80;44.60;;;;;;10452433;28;20044;-48
2024/01/29 22:19:54;;;;;;;8.40;4.95;;;23.70;44.50;;;;;;10457500;28;20135;-48
2024/01/29 22:24:55;;;;;;;6.50;4.57;;;23.60;44.70;;;;;;10457538;28;20051;-50
2024/01/29 22:29:57;;;;;;;6.93;5.25;;;23.60;44.50;;;;;;10463101;28;20048;-52
2024/01/29 22:35:00;;;;;;;8.00;5.40;;;23.50;44.50;;;;;;10447150;28;20536;-52
2024/01/29 22:40:03;;;;;;;9.32;5.60;;;23.50;44.40;;;;;;10458175;28;20056;-50
2024/01/29 22:45:08;;;;;;;9.07;5.78;;;23.50;44.30;;;;;;10455748;28;20128;-51
2024/01/29 22:50:11;;;;;;;7.90;5.57;;;23.40;44.30;;;;;;10452616;28;20041;-53
2024/01/29 22:55:13;;;;;;;7.20;5.40;;;23.40;44.20;;;;;;10454101;28;20209;-50
2024/01/29 23:00:21;;;;;;;8.68;6.47;;;23.30;44.20;;;;;;10458802;28;20067;-49
2024/01/29 23:05:24;;;;;;;9.18;6.30;;;23.40;44.10;;;;;;10458692;28;20075;-49
2024/01/29 23:10:26;;;;;;;9.65;7.00;;;23.30;44.30;;;;;;10461032;28;20131;-49
2024/01/29 23:15:27;;;;;;;8.93;6.80;;;23.20;44.30;;;;;;10455532;28;20043;-49
2024/01/29 23:20:30;;;;;;;9.13;6.93;;;23.20;44.20;;;;;;10463657;28;20123;-51
2024/01/29 23:25:32;;;;;;;11.57;7.85;;;23.10;44.20;;;;;;10465022;28;20044;-49
2024/01/29 23:30:34;;;;;;;10.65;8.05;;;23.10;44.20;;;;;;10459759;28;20037;-47
2024/01/29 23:35:37;;;;;;;14.00;7.82;;;22.90;44.30;;;;;;10460096;28;20051;-48
2024/01/29 23:40:38;;;;;;;10.82;7.75;;;22.90;44.50;;;;;;10467198;28;20413;-46
2024/01/29 23:45:40;;;;;;;12.82;8.77;;;22.80;44.60;;;;;;10464518;28;20062;-46
2024/01/29 23:50:43;;;;;;;13.57;8.77;;;22.80;44.60;;;;;;10452787;28;20037;-50
2024/01/29 23:55:45;;;;;;;11.70;8.98;;;22.70;44.60;;;;;;10457124;28;20045;-46
